createdAt,value
2018-12-04T00:00:28.114Z,100119.78
2018-12-04T00:02:55.331Z,100123.15
2018-12-04T00:05:22.577Z,100139.57
2018-12-04T00:07:49.770Z,100144.82
2018-12-04T00:10:16.981Z,100143.28
2018-12-04T00:12:44.190Z,100159.34
2018-12-04T00:15:11.403Z,100163.56
2018-12-04T00:17:38.693Z,100167.83
2018-12-04T00:20:06.317Z,100173.67
2018-12-04T00:22:33.568Z,100192.16
2018-12-04T00:25:00.791Z,100197.50
2018-12-04T00:27:28.018Z,100202.98
2018-12-04T00:29:55.238Z,100206.87
2018-12-04T00:32:22.457Z,100219.17
2018-12-04T00:34:49.669Z,100229.41
2018-12-04T00:37:17.287Z,100230.02
2018-12-04T00:39:44.588Z,100245.93
2018-12-04T00:42:11.858Z,100256.89
2018-12-04T00:44:39.082Z,100266.90
2018-12-04T00:47:06.365Z,100269.92
2018-12-04T00:49:33.588Z,100281.63
2018-12-04T00:52:00.781Z,100298.00
2018-12-04T00:54:28.081Z,100297.75
2018-12-04T00:56:55.277Z,100307.38
2018-12-04T00:59:22.478Z,100323.27
2018-12-04T01:01:49.704Z,100336.06
2018-12-04T01:04:17.018Z,100351.47
2018-12-04T01:06:44.235Z,100365.55
2018-12-04T01:09:11.518Z,100374.38
2018-12-04T01:11:38.743Z,100382.52
2018-12-04T01:14:05.967Z,100385.38
2018-12-04T01:16:33.300Z,100394.00
2018-12-04T01:19:00.601Z,100402.49
2018-12-04T01:21:27.814Z,100421.11
2018-12-04T01:23:55.066Z,100420.64
2018-12-04T01:26:22.273Z,100429.07
2018-12-04T01:28:49.477Z,100439.73
2018-12-04T01:31:16.724Z,100449.30
2018-12-04T01:33:43.966Z,100457.80
2018-12-04T01:36:11.182Z,100457.09
2018-12-04T01:38:38.383Z,100459.61
2018-12-04T01:41:05.621Z,100460.02
2018-12-04T01:43:32.846Z,100466.95
2018-12-04T01:46:00.038Z,100461.55
2018-12-04T01:48:27.261Z,100462.73
2018-12-04T01:50:54.521Z,100471.68
2018-12-04T01:53:21.741Z,100480.47
2018-12-04T01:55:48.946Z,100494.75
2018-12-04T01:58:16.231Z,100508.41
2018-12-04T02:00:43.570Z,100516.97
2018-12-04T02:03:10.774Z,100526.07
2018-12-04T02:05:38.021Z,100525.07
2018-12-04T02:08:05.221Z,100526.20
2018-12-04T02:10:32.454Z,100531.07
2018-12-04T02:12:59.725Z,100534.93
2018-12-04T02:15:26.994Z,100543.39
2018-12-04T02:17:54.245Z,100552.78
2018-12-04T02:20:21.494Z,100556.24
2018-12-04T02:22:48.697Z,100558.02
2018-12-04T02:25:15.913Z,100565.87
2018-12-04T02:27:43.197Z,100580.48
2018-12-04T02:30:10.447Z,100588.73
2018-12-04T02:32:37.774Z,100582.87
2018-12-04T02:35:05.062Z,100577.36
2018-12-04T02:37:32.280Z,100579.69
2018-12-04T02:39:59.511Z,100593.82
2018-12-04T02:42:26.716Z,100593.27
2018-12-04T02:44:53.913Z,100595.48
2018-12-04T02:47:21.205Z,100603.05
2018-12-04T02:49:48.410Z,100612.36
2018-12-04T02:52:15.696Z,100614.89
2018-12-04T02:54:42.916Z,100620.83
2018-12-04T02:57:10.167Z,100627.52
2018-12-04T02:59:37.466Z,100634.20
2018-12-04T03:02:04.702Z,100636.23
2018-12-04T03:04:31.982Z,100637.39
2018-12-04T03:06:59.181Z,100642.55
2018-12-04T03:09:26.493Z,100646.29
2018-12-04T03:11:53.751Z,100646.02
2018-12-04T03:14:21.030Z,100648.53
2018-12-04T03:16:48.225Z,100657.83
2018-12-04T03:19:15.449Z,100663.41
2018-12-04T03:21:42.672Z,100669.69
2018-12-04T03:24:09.903Z,100674.13
2018-12-04T03:26:37.126Z,100681.33
2018-12-04T03:29:04.330Z,100684.44
2018-12-04T03:31:31.614Z,100680.09
2018-12-04T03:33:58.838Z,100694.64
2018-12-04T03:36:26.119Z,100695.02
2018-12-04T03:38:53.395Z,100706.22
2018-12-04T03:41:20.646Z,100711.73
2018-12-04T03:43:47.869Z,100713.47
2018-12-04T03:46:15.114Z,100724.95
2018-12-04T03:48:42.352Z,100729.59
2018-12-04T03:51:09.654Z,100731.27
2018-12-04T03:53:36.910Z,100742.05
2018-12-04T03:56:04.297Z,100742.90
2018-12-04T03:58:31.497Z,100742.97
2018-12-04T04:00:58.702Z,100748.71
2018-12-04T04:03:25.926Z,100748.66
2018-12-04T04:05:53.209Z,100751.53
2018-12-04T04:08:20.447Z,100759.14
2018-12-04T04:10:47.754Z,100761.44
2018-12-04T04:13:14.981Z,100770.85
2018-12-04T04:15:42.273Z,100765.31
2018-12-04T04:18:09.466Z,100770.67
2018-12-04T04:20:36.768Z,100772.89
2018-12-04T04:23:04.078Z,100778.44
2018-12-04T04:25:31.286Z,100781.12
2018-12-04T04:27:58.515Z,100786.26
2018-12-04T04:30:25.722Z,100791.97
2018-12-04T04:32:52.954Z,100798.08
2018-12-04T04:35:20.183Z,100800.89
2018-12-04T04:37:47.410Z,100803.81
2018-12-04T04:40:14.734Z,100792.56
2018-12-04T04:42:41.939Z,100798.70
2018-12-04T04:45:09.199Z,100806.28
2018-12-04T04:47:36.408Z,100810.77
2018-12-04T04:50:04.005Z,100822.31
2018-12-04T04:52:31.210Z,100823.70
2018-12-04T04:54:58.501Z,100820.14
2018-12-04T04:57:25.762Z,100831.96
2018-12-04T04:59:52.983Z,100833.55
2018-12-04T05:02:20.244Z,100833.36
2018-12-04T05:04:47.481Z,100846.60
2018-12-04T05:07:14.714Z,100858.17
2018-12-04T05:09:41.955Z,100862.99
2018-12-04T05:12:09.170Z,100862.11
2018-12-04T05:14:36.394Z,100862.80
2018-12-04T05:17:03.654Z,100870.92
2018-12-04T05:19:30.870Z,100873.63
2018-12-04T05:21:58.122Z,100876.19
2018-12-04T05:24:25.367Z,100870.41
2018-12-04T05:26:52.629Z,100876.31
2018-12-04T05:29:19.830Z,100886.19
2018-12-04T05:31:47.054Z,100891.19
2018-12-04T05:34:14.314Z,100898.30
2018-12-04T05:36:41.600Z,100911.98
2018-12-04T05:39:08.822Z,100915.19
2018-12-04T05:41:36.050Z,100911.34
2018-12-04T05:44:03.290Z,100915.77
2018-12-04T05:46:30.577Z,100923.52
2018-12-04T05:48:57.778Z,100931.75
2018-12-04T05:51:25.043Z,100934.06
2018-12-04T05:53:52.330Z,100941.09
2018-12-04T05:56:19.632Z,100943.11
2018-12-04T05:58:46.966Z,100947.00
2018-12-04T06:01:14.183Z,100952.26
2018-12-04T06:03:41.446Z,100959.99
2018-12-04T06:06:08.654Z,100968.63
2018-12-04T06:08:35.861Z,100979.25
2018-12-04T06:11:03.110Z,100980.99
2018-12-04T06:13:30.374Z,100995.80
2018-12-04T06:15:57.584Z,101001.00
2018-12-04T06:18:24.797Z,101010.56
2018-12-04T06:20:52.017Z,101016.31
2018-12-04T06:23:19.238Z,101020.63
2018-12-04T06:25:46.441Z,101028.92
2018-12-04T06:28:13.673Z,101030.98
2018-12-04T06:30:40.878Z,101035.44
2018-12-04T06:33:08.186Z,101036.51
2018-12-04T06:35:35.390Z,101040.96
2018-12-04T06:38:02.605Z,101048.15
2018-12-04T06:40:29.890Z,101055.60
2018-12-04T06:42:57.112Z,101057.79
2018-12-04T06:45:24.355Z,101066.16
2018-12-04T06:47:51.600Z,101068.23
2018-12-04T06:50:18.817Z,101078.48
2018-12-04T06:52:46.041Z,101088.19
2018-12-04T06:55:13.281Z,101095.19
2018-12-04T06:57:40.573Z,101108.84
2018-12-04T07:00:08.153Z,101109.98
2018-12-04T07:02:35.437Z,101118.41
2018-12-04T07:05:02.731Z,101120.43
2018-12-04T07:07:30.008Z,101129.30
2018-12-04T07:09:57.353Z,101137.54
2018-12-04T07:12:24.555Z,101145.33
2018-12-04T07:14:51.750Z,101151.82
2018-12-04T07:17:18.971Z,101160.13
2018-12-04T07:19:46.202Z,101169.68
2018-12-04T07:22:13.404Z,101166.61
2018-12-04T07:24:40.602Z,101172.86
2018-12-04T07:27:07.817Z,101174.50
2018-12-04T07:29:35.115Z,101176.05
2018-12-04T07:32:02.329Z,101185.55
2018-12-04T07:34:29.552Z,101190.44
2018-12-04T07:36:56.766Z,101192.21
2018-12-04T07:39:23.991Z,101198.66
2018-12-04T07:41:51.228Z,101203.92
2018-12-04T07:44:18.435Z,101202.09
2018-12-04T07:46:45.725Z,101211.73
2018-12-04T07:49:12.957Z,101219.30
2018-12-04T07:51:40.283Z,101228.14
2018-12-04T07:54:07.499Z,101230.58
2018-12-04T07:56:34.803Z,101234.00
2018-12-04T07:59:02.049Z,101242.33
2018-12-04T08:01:29.334Z,101248.27
2018-12-04T08:03:56.591Z,101254.91
2018-12-04T08:06:23.894Z,101257.44
2018-12-04T08:08:51.137Z,101265.30
2018-12-04T08:11:18.406Z,101280.36
2018-12-04T08:13:45.637Z,101289.89
2018-12-04T08:16:12.922Z,101286.12
2018-12-04T08:18:40.136Z,101286.17
2018-12-04T08:21:07.399Z,101292.05
2018-12-04T08:23:34.653Z,101289.42
2018-12-04T08:26:01.861Z,101294.70
2018-12-04T08:28:29.077Z,101297.20
2018-12-04T08:30:56.277Z,101305.05
2018-12-04T08:33:23.494Z,101309.06
2018-12-04T08:35:50.704Z,101316.33
2018-12-04T08:38:17.956Z,101322.83
2018-12-04T08:40:45.173Z,101320.54
2018-12-04T08:43:12.494Z,101326.41
2018-12-04T08:45:39.722Z,101325.28
2018-12-04T08:48:07.251Z,101331.01
2018-12-04T08:50:34.478Z,101342.75
2018-12-04T08:53:01.695Z,101348.59
2018-12-04T08:55:28.902Z,101354.13
2018-12-04T08:57:56.125Z,101363.22
2018-12-04T09:00:23.470Z,101367.22
2018-12-04T09:02:50.749Z,101377.13
2018-12-04T09:05:18.083Z,101379.37
2018-12-04T09:07:45.301Z,101384.88
2018-12-04T09:10:12.625Z,101396.56
2018-12-04T09:12:39.833Z,101396.70
2018-12-04T09:15:07.166Z,101408.50
2018-12-04T09:17:34.412Z,101415.48
2018-12-04T09:20:01.645Z,101419.46
2018-12-04T09:22:28.930Z,101425.45
2018-12-04T09:24:56.231Z,101429.08
2018-12-04T09:27:23.582Z,101431.74
2018-12-04T09:29:50.858Z,101435.83
2018-12-04T09:32:18.169Z,101441.44
2018-12-04T09:34:45.374Z,101455.28
2018-12-04T09:37:12.652Z,101456.66
2018-12-04T09:39:39.941Z,101462.91
2018-12-04T09:42:07.467Z,101465.34
2018-12-04T09:44:34.665Z,101466.05
2018-12-04T09:47:01.866Z,101470.45
2018-12-04T09:49:29.139Z,101480.86
2018-12-04T09:51:56.344Z,101488.60
2018-12-04T09:54:23.541Z,101482.77
2018-12-04T09:56:50.762Z,101483.01
2018-12-04T09:59:18.030Z,101487.63
2018-12-04T10:01:45.667Z,101483.23
2018-12-04T10:04:12.903Z,101485.25
2018-12-04T10:06:40.101Z,101495.38
2018-12-04T10:09:07.802Z,101504.77
2018-12-04T10:11:35.022Z,101505.48
2018-12-04T10:14:02.381Z,101505.80
2018-12-04T10:16:29.894Z,101514.95
2018-12-04T10:18:57.099Z,101520.21
2018-12-04T10:21:24.360Z,101520.28
2018-12-04T10:23:51.578Z,101518.06
2018-12-04T10:26:18.830Z,101521.42
2018-12-04T10:28:46.026Z,101523.02
2018-12-04T10:31:13.237Z,101531.17
2018-12-04T10:33:40.613Z,101533.95
2018-12-04T10:36:08.974Z,101526.57
2018-12-04T10:38:36.450Z,101525.72
2018-12-04T10:41:03.761Z,101534.09
2018-12-04T10:43:30.994Z,101537.51
2018-12-04T10:45:58.279Z,101539.33
2018-12-04T10:48:25.478Z,101544.45
2018-12-04T10:50:52.706Z,101542.45
2018-12-04T10:53:19.954Z,101546.97
2018-12-04T10:55:47.178Z,101547.38
2018-12-04T10:58:14.397Z,101549.27
2018-12-04T11:00:47.353Z,101552.22
2018-12-04T11:03:14.653Z,101557.67
2018-12-04T11:05:41.934Z,101560.61
2018-12-04T11:08:09.185Z,101563.23
2018-12-04T11:10:36.419Z,101560.09
2018-12-04T11:13:03.694Z,101562.20
2018-12-04T11:15:31.031Z,101558.16
2018-12-04T11:17:58.270Z,101560.33
2018-12-04T11:20:25.509Z,101570.27
2018-12-04T11:22:52.757Z,101573.70
2018-12-04T11:25:19.960Z,101573.17
2018-12-04T11:27:47.270Z,101573.26
2018-12-04T11:30:14.465Z,101574.42
2018-12-04T11:32:41.669Z,101577.39
2018-12-04T11:35:09.006Z,101579.46
2018-12-04T11:37:36.274Z,101586.63
2018-12-04T11:40:04.651Z,101597.36
2018-12-04T11:42:31.862Z,101596.29
2018-12-04T11:44:59.067Z,101602.33
2018-12-04T11:47:26.314Z,101596.56
2018-12-04T11:49:53.538Z,101612.65
2018-12-04T11:52:20.738Z,101614.34
2018-12-04T11:54:47.978Z,101613.02
2018-12-04T11:57:15.186Z,101611.22
2018-12-04T11:59:42.452Z,101610.39
2018-12-04T12:02:10.912Z,101614.02
2018-12-04T12:04:38.791Z,101611.08
2018-12-04T12:07:05.991Z,101618.26
2018-12-04T12:09:33.233Z,101622.58
2018-12-04T12:12:00.487Z,101627.02
2018-12-04T12:14:27.687Z,101624.59
2018-12-04T12:16:54.903Z,101628.55
2018-12-04T12:19:22.117Z,101622.69
2018-12-04T12:21:49.345Z,101626.87
2018-12-04T12:24:16.537Z,101630.48
2018-12-04T12:26:43.765Z,101633.45
2018-12-04T12:29:11.009Z,101634.51
2018-12-04T12:31:38.229Z,101636.48
2018-12-04T12:34:05.478Z,101630.95
2018-12-04T12:36:32.774Z,101631.67
2018-12-04T12:38:59.997Z,101626.20
2018-12-04T12:41:27.233Z,101633.75
2018-12-04T12:43:54.537Z,101635.94
2018-12-04T12:46:21.747Z,101645.23
2018-12-04T12:48:48.965Z,101651.16
2018-12-04T12:51:16.238Z,101649.72
2018-12-04T12:53:43.549Z,101649.83
2018-12-04T12:56:10.810Z,101657.64
2018-12-04T12:58:38.123Z,101662.02
2018-12-04T13:01:05.439Z,101650.04
2018-12-04T13:03:32.661Z,101656.89
2018-12-04T13:05:59.902Z,101663.91
2018-12-04T13:08:27.137Z,101668.03
2018-12-04T13:10:54.349Z,101671.35
2018-12-04T13:13:21.559Z,101676.02
2018-12-04T13:15:48.864Z,101684.06
2018-12-04T13:18:16.152Z,101689.16
2018-12-04T13:20:43.427Z,101693.44
2018-12-04T13:23:10.656Z,101695.45
2018-12-04T13:25:37.931Z,101694.45
2018-12-04T13:28:05.226Z,101700.83
2018-12-04T13:30:32.562Z,101695.11
2018-12-04T13:32:59.896Z,101697.40
2018-12-04T13:35:27.232Z,101703.72
2018-12-04T13:37:54.456Z,101704.11
2018-12-04T13:40:21.750Z,101707.47
2018-12-04T13:42:48.999Z,101711.02
2018-12-04T13:45:16.232Z,101708.08
2018-12-04T13:47:43.579Z,101714.94
2018-12-04T13:50:10.918Z,101715.23
2018-12-04T13:52:38.233Z,101718.04
2018-12-04T13:55:05.666Z,101718.91
2018-12-04T13:57:32.941Z,101721.66
2018-12-04T14:00:00.223Z,101724.48
2018-12-04T14:02:27.509Z,101736.41
2018-12-04T14:04:54.795Z,101742.16
2018-12-04T14:07:22.138Z,101749.69
2018-12-04T14:09:49.440Z,101751.41
2018-12-04T14:12:16.734Z,101748.64
2018-12-04T14:14:43.977Z,101752.17
2018-12-04T14:17:11.326Z,101752.75
2018-12-04T14:19:38.548Z,101756.71
2018-12-04T14:22:05.861Z,101774.91
2018-12-04T14:24:33.124Z,101777.51
2018-12-04T14:27:00.429Z,101777.47
2018-12-04T14:29:27.694Z,101777.52
2018-12-04T14:31:55.022Z,101786.59
2018-12-04T14:34:22.285Z,101787.64
2018-12-04T14:36:49.560Z,101791.84
2018-12-04T14:39:16.916Z,101799.73
2018-12-04T14:41:44.175Z,101802.99
2018-12-04T14:44:11.399Z,101802.48
2018-12-04T14:46:38.715Z,101807.48
2018-12-04T14:49:06.027Z,101801.48
2018-12-04T14:51:33.266Z,101802.87
2018-12-04T14:54:00.625Z,101799.59
2018-12-04T14:56:27.929Z,101805.84
2018-12-04T14:58:55.245Z,101811.83
2018-12-04T15:01:22.578Z,101814.77
2018-12-04T15:03:50.148Z,101820.41
2018-12-04T15:06:17.437Z,101826.28
2018-12-04T15:08:44.651Z,101818.06
2018-12-04T15:11:11.971Z,101827.25
2018-12-04T15:13:39.257Z,101823.84
2018-12-04T15:16:06.655Z,101822.05
2018-12-04T15:18:33.971Z,101829.02
2018-12-04T15:21:01.250Z,101836.42
2018-12-04T15:23:28.553Z,101839.38
2018-12-04T15:25:55.892Z,101849.48
2018-12-04T15:28:23.131Z,101846.00
2018-12-04T15:30:50.428Z,101844.84
2018-12-04T15:33:17.747Z,101848.11
2018-12-04T15:35:44.949Z,101852.86
2018-12-04T15:38:12.242Z,101854.94
2018-12-04T15:40:39.485Z,101863.34
2018-12-04T15:43:06.757Z,101869.30
2018-12-04T15:45:33.962Z,101869.59
2018-12-04T15:48:01.190Z,101869.87
2018-12-04T15:50:28.497Z,101871.84
2018-12-04T15:52:55.726Z,101878.44
2018-12-04T15:55:23.039Z,101875.95
2018-12-04T15:57:50.345Z,101880.19
2018-12-04T16:00:17.545Z,101881.19
2018-12-04T16:02:44.779Z,101887.56
2018-12-04T16:05:12.026Z,101890.98
2018-12-04T16:07:39.249Z,101903.38
2018-12-04T16:10:08.906Z,101906.30
2018-12-04T16:12:36.120Z,101912.34
2018-12-04T16:15:03.437Z,101913.34
2018-12-04T16:17:30.645Z,101922.25
2018-12-04T16:19:57.849Z,101928.05
2018-12-04T16:22:25.155Z,101940.45
2018-12-04T16:24:52.438Z,101943.20
2018-12-04T16:27:19.663Z,101940.18
2018-12-04T16:29:46.956Z,101932.38
2018-12-04T16:32:14.181Z,101934.21
2018-12-04T16:34:41.385Z,101941.59
2018-12-04T16:37:08.605Z,101934.09
2018-12-04T16:39:35.851Z,101941.99
2018-12-04T16:42:03.077Z,101944.81
2018-12-04T16:44:30.357Z,101940.98
2018-12-04T16:46:57.566Z,101943.24
2018-12-04T16:49:24.877Z,101953.91
2018-12-04T16:51:52.098Z,101958.52
2018-12-04T16:54:19.299Z,101955.40
2018-12-04T16:56:46.522Z,101955.80
2018-12-04T16:59:13.754Z,101949.84
2018-12-04T17:01:40.994Z,101949.56
2018-12-04T17:04:08.237Z,101943.13
2018-12-04T17:06:35.453Z,101943.52
2018-12-04T17:09:02.681Z,101943.84
2018-12-04T17:11:29.917Z,101946.22
2018-12-04T17:13:57.114Z,101951.11
2018-12-04T17:16:24.318Z,101959.80
2018-12-04T17:18:51.677Z,101961.23
2018-12-04T17:21:18.986Z,101962.14
2018-12-04T17:23:46.197Z,101963.56
2018-12-04T17:26:13.552Z,101971.27
2018-12-04T17:28:40.792Z,101973.55
2018-12-04T17:31:08.085Z,101971.04
2018-12-04T17:33:35.338Z,101981.43
2018-12-04T17:36:02.680Z,101988.25
2018-12-04T17:38:29.954Z,101991.22
2018-12-04T17:40:57.174Z,101993.17
2018-12-04T17:43:24.418Z,101989.07
2018-12-04T17:45:51.674Z,101990.97
2018-12-04T17:48:19.037Z,101995.39
2018-12-04T17:50:46.348Z,101999.61
2018-12-04T17:53:13.550Z,101999.58
2018-12-04T17:55:40.776Z,102002.67
2018-12-04T17:58:08.034Z,102002.43
2018-12-04T18:00:35.290Z,102003.61
2018-12-04T18:03:02.501Z,101999.53
2018-12-04T18:05:29.734Z,102002.11
2018-12-04T18:07:56.946Z,102000.20
2018-12-04T18:10:24.165Z,101999.30
2018-12-04T18:12:51.374Z,101996.87
2018-12-04T18:15:18.598Z,102005.01
2018-12-04T18:17:45.834Z,102007.66
2018-12-04T18:20:13.057Z,102008.27
2018-12-04T18:22:40.390Z,102010.88
2018-12-04T18:25:07.692Z,102009.66
2018-12-04T18:27:34.934Z,102011.55
2018-12-04T18:30:02.174Z,102018.06
2018-12-04T18:32:29.381Z,102027.26
2018-12-04T18:34:56.650Z,102031.36
2018-12-04T18:37:23.853Z,102035.23
2018-12-04T18:39:51.194Z,102041.02
2018-12-04T18:42:18.474Z,102039.95
2018-12-04T18:44:45.713Z,102040.69
2018-12-04T18:47:12.934Z,102038.23
2018-12-04T18:49:40.217Z,102035.87
2018-12-04T18:52:07.465Z,102038.80
2018-12-04T18:54:34.674Z,102035.83
2018-12-04T18:57:01.894Z,102039.38
2018-12-04T18:59:29.107Z,102042.67
2018-12-04T19:01:56.478Z,102040.85
2018-12-04T19:04:23.705Z,102045.45
2018-12-04T19:06:50.977Z,102047.50
2018-12-04T19:09:18.214Z,102040.88
2018-12-04T19:11:45.425Z,102050.37
2018-12-04T19:14:12.686Z,102047.64
2018-12-04T19:16:40.003Z,102049.95
2018-12-04T19:19:07.267Z,102060.81
2018-12-04T19:24:37.253Z,102070.81
2018-12-04T19:27:04.631Z,102068.86
2018-12-04T19:29:31.958Z,102070.63
2018-12-04T19:31:59.178Z,102068.00
2018-12-04T19:34:26.408Z,102065.06
2018-12-04T19:36:53.663Z,102067.88
2018-12-04T19:39:22.166Z,102069.34
2018-12-04T19:41:49.373Z,102069.97
2018-12-04T19:44:16.589Z,102072.89
2018-12-04T19:46:43.821Z,102076.89
2018-12-04T19:49:11.058Z,102081.94
2018-12-04T19:51:38.293Z,102089.17
2018-12-04T19:54:05.566Z,102090.69
2018-12-04T19:56:32.798Z,102092.78
2018-12-04T19:59:00.054Z,102099.65
2018-12-04T20:01:27.278Z,102095.20
2018-12-04T20:03:54.558Z,102099.96
2018-12-04T20:06:21.766Z,102107.83
2018-12-04T20:08:52.125Z,102106.91
2018-12-04T20:11:19.622Z,102112.67
2018-12-04T20:13:46.894Z,102115.59
2018-12-04T20:16:14.122Z,102115.02
2018-12-04T20:18:41.330Z,102118.23
2018-12-04T20:21:08.566Z,102120.63
2018-12-04T20:23:35.819Z,102120.86
2018-12-04T20:26:03.436Z,102121.34
2018-12-04T20:28:30.650Z,102123.09
2018-12-04T20:30:57.887Z,102128.11
2018-12-04T20:33:25.174Z,102133.34
2018-12-04T20:35:53.267Z,102138.00
2018-12-04T20:38:20.518Z,102143.09
2018-12-04T20:40:47.758Z,102144.03
2018-12-04T20:43:14.994Z,102144.58
2018-12-04T20:45:42.414Z,102146.70
2018-12-04T20:48:09.669Z,102148.16
2018-12-04T20:50:36.902Z,102142.34
2018-12-04T20:53:04.381Z,102146.23
2018-12-04T20:55:31.611Z,102144.59
2018-12-04T20:57:58.874Z,102145.88
2018-12-04T21:00:26.113Z,102151.87
2018-12-04T21:02:53.354Z,102155.05
2018-12-04T21:05:20.570Z,102158.55
2018-12-04T21:07:48.034Z,102161.23
2018-12-04T21:10:15.238Z,102158.99
2018-12-04T21:12:42.466Z,102159.67
2018-12-04T21:15:09.705Z,102158.21
2018-12-04T21:17:37.017Z,102155.34
2018-12-04T21:20:04.809Z,102152.97
2018-12-04T21:22:32.058Z,102154.39
2018-12-04T21:24:59.265Z,102152.08
2018-12-04T21:27:32.449Z,102149.05
2018-12-04T21:30:05.374Z,102150.69
2018-12-04T21:32:38.274Z,102154.63
2018-12-04T21:35:11.141Z,102163.52
2018-12-04T21:37:44.158Z,102157.51
2018-12-04T21:40:17.145Z,111811.98
2018-12-04T21:42:50.214Z,111811.98
2018-12-04T21:45:23.070Z,111811.98
2018-12-04T21:47:55.190Z,111811.98
2018-12-04T21:50:22.477Z,111811.98
2018-12-04T21:52:49.710Z,111811.98
2018-12-04T21:55:16.974Z,111811.98
2018-12-04T21:57:44.251Z,111811.98
2018-12-04T22:00:11.591Z,111811.98
2018-12-04T22:02:38.891Z,111811.98
2018-12-04T22:05:06.165Z,111811.98
2018-12-04T22:07:33.438Z,111811.98
2018-12-04T22:10:00.681Z,111811.98
2018-12-04T22:12:27.942Z,111811.98
2018-12-04T22:14:55.173Z,111811.98
2018-12-04T22:17:22.422Z,111811.98
2018-12-04T22:19:49.666Z,111811.98
2018-12-04T22:22:16.985Z,111811.98
2018-12-04T22:24:44.211Z,111811.98
2018-12-04T22:27:11.481Z,111811.98
2018-12-04T22:29:38.724Z,111811.98
2018-12-04T22:32:05.945Z,111811.98
2018-12-04T22:34:33.184Z,111811.98
2018-12-04T22:37:00.406Z,111811.98
2018-12-04T22:39:27.641Z,111811.98
2018-12-04T22:41:54.953Z,111811.98
2018-12-04T22:44:22.174Z,111811.98
2018-12-04T22:46:49.576Z,111811.98
2018-12-04T22:49:16.905Z,111811.98
2018-12-04T22:51:44.199Z,111811.98
2018-12-04T22:54:11.450Z,111811.98
2018-12-04T22:56:38.690Z,111811.98
2018-12-04T22:59:05.932Z,111811.98
2018-12-04T23:01:37.899Z,111811.98
2018-12-04T23:04:06.474Z,111811.98
2018-12-04T23:06:33.722Z,111811.98
2018-12-04T23:09:00.990Z,111811.98
2018-12-04T23:11:28.267Z,111811.98
2018-12-04T23:13:55.521Z,111811.98
2018-12-04T23:16:22.854Z,111811.98
2018-12-04T23:18:50.095Z,111811.98
2018-12-04T23:21:17.364Z,111811.98
2018-12-04T23:23:44.671Z,111811.98
2018-12-04T23:26:11.913Z,111811.98
2018-12-04T23:28:39.192Z,111811.98
2018-12-04T23:31:06.458Z,111811.98
2018-12-04T23:33:33.718Z,111811.98
2018-12-04T23:36:00.948Z,111811.98
2018-12-04T23:38:28.213Z,111811.98
2018-12-04T23:40:55.441Z,111811.98
2018-12-04T23:43:22.665Z,111811.98
2018-12-04T23:45:49.926Z,111811.98
2018-12-04T23:48:17.178Z,111811.98
2018-12-04T23:50:44.425Z,111811.98
2018-12-04T23:53:11.678Z,111811.98
2018-12-04T23:55:38.917Z,111811.98
2018-12-04T23:58:06.239Z,111811.98
